Time;durP1;ratioP1;P1;durP2;ratioP2;P2;SDS_P1;SDS_P2;PMS_P1;PMS_P2;Temp;Humidity;BMP_temperature;BMP_pressure;BME280_temperature;BME280_humidity;BME280_pressure;Samples;Min_cycle;Max_cycle;Signal;HPM_P1;HPM_P2
2023/03/16 00:01:27;;;;;;;;;;;;;;;;;;5028960;28;19920;-60
2023/03/16 00:03:53;;;;;;;;;;;;;;;;;;5028706;28;19963;-59
2023/03/16 00:06:19;;;;;;;;;;;;;;;;;;5028732;28;19948;-59
2023/03/16 00:08:45;;;;;;;;;;;;;;;;;;5029317;28;19913;-59
2023/03/16 00:11:11;;;;;;;;;;;;;;;;;;5028210;28;19955;-59
2023/03/16 00:13:37;;;;;;;;;;;;;;;;;;5029102;28;19964;-59
2023/03/16 00:16:03;;;;;;;;;;;;;;;;;;5028331;28;19940;-59
2023/03/16 00:18:29;;;;;;;;;;;;;;;;;;5028718;28;20346;-59
2023/03/16 00:20:55;;;;;;;;;;;;;;;;;;5028351;28;19916;-59
2023/03/16 00:23:26;;;;;;;;;;;;;;;;;;5028495;28;20473;-60
2023/03/16 00:25:52;;;;;;;;;;;;;;;;;;5028472;28;19909;-59
2023/03/16 00:28:18;;;;;;;;;;;;;;;;;;5028457;28;20385;-59
2023/03/16 00:30:46;;;;;;;;;;;;;;;;;;5028647;28;20028;-59
2023/03/16 00:33:12;;;;;;;;;;;;;;;;;;5032139;28;20356;-59
2023/03/16 00:35:38;;;;;;;;;;;;;;;;;;5030549;28;19920;-59
2023/03/16 00:38:03;;;;;;;;;;;;;;;;;;5032769;28;19924;-59
2023/03/16 00:40:29;;;;;;;;;;;;;;;;;;5030687;28;20020;-59
2023/03/16 00:42:55;;;;;;;;;;;;;;;;;;5030405;28;19913;-59
2023/03/16 00:45:22;;;;;;;;;;;;;;;;;;5031671;28;19924;-59
2023/03/16 00:47:48;;;;;;;;;;;;;;;;;;5031069;28;19909;-59
2023/03/16 00:50:14;;;;;;;;;;;;;;;;;;5031879;28;19959;-59
2023/03/16 00:52:41;;;;;;;;;;;;;;;;;;5032063;28;19925;-60
2023/03/16 00:55:07;;;;;;;;;;;;;;;;;;5030050;28;19964;-59
2023/03/16 00:57:33;;;;;;;;;;;;;;;;;;5032041;28;19913;-59
2023/03/16 00:59:59;;;;;;;;;;;;;;;;;;5031940;28;19955;-59
2023/03/16 01:02:25;;;;;;;;;;;;;;;;;;5031880;28;19939;-59
2023/03/16 01:04:51;;;;;;;;;;;;;;;;;;5031860;28;20016;-59
2023/03/16 01:07:16;;;;;;;;;;;;;;;;;;5031941;28;19996;-60
2023/03/16 01:09:42;;;;;;;;;;;;;;;;;;5031284;28;20638;-60
2023/03/16 01:12:08;;;;;;;;;;;;;;;;;;5030359;28;20008;-60
2023/03/16 01:14:34;;;;;;;;;;;;;;;;;;5031549;28;19909;-60
2023/03/16 01:17:00;;;;;;;;;;;;;;;;;;5031851;28;19955;-59
2023/03/16 01:19:26;;;;;;;;;;;;;;;;;;5030817;28;19967;-59
2023/03/16 01:21:52;;;;;;;;;;;;;;;;;;5031364;28;19913;-60
2023/03/16 01:24:18;;;;;;;;;;;;;;;;;;5031581;28;19916;-59
2023/03/16 01:26:44;;;;;;;;;;;;;;;;;;5031682;28;19948;-59
2023/03/16 01:29:11;;;;;;;;;;;;;;;;;;5031261;28;19918;-59
2023/03/16 01:31:37;;;;;;;;;;;;;;;;;;5031326;28;20412;-60
2023/03/16 01:34:03;;;;;;;;;;;;;;;;;;5031145;28;19952;-59
2023/03/16 01:36:28;;;;;;;;;;;;;;;;;;5031828;28;19921;-59
2023/03/16 01:38:54;;;;;;;;;;;;;;;;;;5032333;28;20590;-60
2023/03/16 01:41:21;;;;;;;;;;;;;;;;;;5031398;28;19917;-59
2023/03/16 01:43:46;;;;;;;;;;;;;;;;;;5029659;28;19936;-59
2023/03/16 01:46:17;;;;;;;;;;;;;;;;;;5031248;28;20343;-59
2023/03/16 01:48:42;;;;;;;;;;;;;;;;;;5029513;28;19909;-60
2023/03/16 01:51:08;;;;;;;;;;;;;;;;;;5030735;28;19924;-59
2023/03/16 01:53:34;;;;;;;;;;;;;;;;;;5030586;28;19913;-60
2023/03/16 01:56:00;;;;;;;;;;;;;;;;;;5030578;28;20312;-60
2023/03/16 01:58:26;;;;;;;;;;;;;;;;;;5030470;28;19920;-60
2023/03/16 02:00:52;;;;;;;;;;;;;;;;;;5030995;28;19924;-60
2023/03/16 02:03:18;;;;;;;;;;;;;;;;;;5030609;28;19913;-60
2023/03/16 02:05:44;;;;;;;;;;;;;;;;;;5030824;28;19916;-60
2023/03/16 02:08:11;;;;;;;;;;;;;;;;;;5030490;28;19920;-60
2023/03/16 02:10:37;;;;;;;;;;;;;;;;;;5030180;28;20648;-60
2023/03/16 02:13:03;;;;;;;;;;;;;;;;;;5030731;28;19999;-59
2023/03/16 02:15:28;;;;;;;;;;;;;;;;;;5030623;28;19913;-60
2023/03/16 02:17:56;;;;;;;;;;;;;;;;;;5029252;28;19913;-60
2023/03/16 02:20:22;;;;;;;;;;;;;;;;;;5030159;28;19921;-60
2023/03/16 02:22:48;;;;;;;;;;;;;;;;;;5030532;28;19916;-60
2023/03/16 02:25:14;;;;;;;;;;;;;;;;;;5030086;28;20032;-59
2023/03/16 02:27:40;;;;;;;;;;;;;;;;;;5030044;28;19913;-60
2023/03/16 02:30:05;;;;;;;;;;;;;;;;;;5030190;28;19913;-59
2023/03/16 02:32:32;;;;;;;;;;;;;;;;;;5029861;28;20024;-59
2023/03/16 02:34:58;;;;;;;;;;;;;;;;;;5030331;28;20375;-59
2023/03/16 02:37:24;;;;;;;;;;;;;;;;;;5029776;28;19913;-59
2023/03/16 02:39:49;;;;;;;;;;;;;;;;;;5029790;28;20152;-59
2023/03/16 02:42:15;;;;;;;;;;;;;;;;;;5029717;28;19955;-60
2023/03/16 02:44:42;;;;;;;;;;;;;;;;;;5029978;28;19913;-59
2023/03/16 02:47:08;;;;;;;;;;;;;;;;;;5029935;28;19913;-59
2023/03/16 02:49:34;;;;;;;;;;;;;;;;;;5029361;28;19913;-59
2023/03/16 02:52:00;;;;;;;;;;;;;;;;;;5029570;28;19927;-60
2023/03/16 02:54:26;;;;;;;;;;;;;;;;;;5029471;28;19913;-59
2023/03/16 02:56:52;;;;;;;;;;;;;;;;;;5030475;28;19913;-59
2023/03/16 02:59:18;;;;;;;;;;;;;;;;;;5029393;28;19917;-59
2023/03/16 03:01:44;;;;;;;;;;;;;;;;;;5030131;28;19913;-59
2023/03/16 03:04:09;;;;;;;;;;;;;;;;;;5029124;28;19955;-59
2023/03/16 03:06:35;;;;;;;;;;;;;;;;;;5029196;28;20007;-59
2023/03/16 03:09:01;;;;;;;;;;;;;;;;;;5027918;28;19909;-59
2023/03/16 03:11:27;;;;;;;;;;;;;;;;;;5028590;28;19979;-59
2023/03/16 03:13:53;;;;;;;;;;;;;;;;;;5029040;28;19913;-59
2023/03/16 03:16:20;;;;;;;;;;;;;;;;;;5029341;28;20031;-59
2023/03/16 03:18:45;;;;;;;;;;;;;;;;;;5028953;28;20453;-60
2023/03/16 03:21:11;;;;;;;;;;;;;;;;;;5029572;28;20016;-59
2023/03/16 03:23:37;;;;;;;;;;;;;;;;;;5029274;28;19909;-59
2023/03/16 03:26:03;;;;;;;;;;;;;;;;;;5029644;28;19983;-59
2023/03/16 03:28:29;;;;;;;;;;;;;;;;;;5029454;28;19920;-59
2023/03/16 03:30:55;;;;;;;;;;;;;;;;;;5029074;28;20019;-59
2023/03/16 03:33:23;;;;;;;;;;;;;;;;;;5028343;28;20304;-59
2023/03/16 03:35:48;;;;;;;;;;;;;;;;;;5029260;28;19990;-58
2023/03/16 03:38:14;;;;;;;;;;;;;;;;;;5028649;28;19919;-59
2023/03/16 03:40:40;;;;;;;;;;;;;;;;;;5030461;28;19918;-58
2023/03/16 03:43:06;;;;;;;;;;;;;;;;;;5028808;28;19963;-59
2023/03/16 03:45:32;;;;;;;;;;;;;;;;;;5028597;28;19913;-58
2023/03/16 03:47:58;;;;;;;;;;;;;;;;;;5028876;28;19909;-58
2023/03/16 03:50:24;;;;;;;;;;;;;;;;;;5029039;28;19913;-59
2023/03/16 03:52:50;;;;;;;;;;;;;;;;;;5028745;28;19921;-60
2023/03/16 03:55:15;;;;;;;;;;;;;;;;;;5028532;28;19920;-59
2023/03/16 03:57:41;;;;;;;;;;;;;;;;;;5028736;28;20336;-59
2023/03/16 04:00:10;;;;;;;;;;;;;;;;;;5016900;28;19956;-59
2023/03/16 04:02:36;;;;;;;;;;;;;;;;;;5028929;28;20009;-59
2023/03/16 04:05:02;;;;;;;;;;;;;;;;;;5027324;28;20003;-59
2023/03/16 04:07:28;;;;;;;;;;;;;;;;;;5028270;28;19936;-59
2023/03/16 04:09:54;;;;;;;;;;;;;;;;;;5028919;28;19917;-60
2023/03/16 04:12:19;;;;;;;;;;;;;;;;;;5028200;28;20370;-59
2023/03/16 04:14:45;;;;;;;;;;;;;;;;;;5028836;28;19917;-60
2023/03/16 04:17:11;;;;;;;;;;;;;;;;;;5028095;28;20457;-59
2023/03/16 04:19:37;;;;;;;;;;;;;;;;;;5028549;28;19920;-59
2023/03/16 04:22:03;;;;;;;;;;;;;;;;;;5028221;28;19909;-60
2023/03/16 04:24:33;;;;;;;;;;;;;;;;;;5028806;28;19944;-59
2023/03/16 04:26:59;;;;;;;;;;;;;;;;;;5028338;28;19998;-59
2023/03/16 04:29:25;;;;;;;;;;;;;;;;;;5028610;28;19913;-60
2023/03/16 04:31:52;;;;;;;;;;;;;;;;;;5027999;28;19927;-59
2023/03/16 04:34:18;;;;;;;;;;;;;;;;;;5028357;28;19910;-59
2023/03/16 04:36:44;;;;;;;;;;;;;;;;;;5028508;28;20000;-59
2023/03/16 04:39:10;;;;;;;;;;;;;;;;;;5028504;28;19928;-59
2023/03/16 04:41:36;;;;;;;;;;;;;;;;;;5026762;28;19916;-59
2023/03/16 04:44:03;;;;;;;;;;;;;;;;;;5028272;28;20389;-59
2023/03/16 04:46:29;;;;;;;;;;;;;;;;;;5028165;28;19909;-60
2023/03/16 04:48:57;;;;;;;;;;;;;;;;;;5028590;28;19913;-60
2023/03/16 04:51:23;;;;;;;;;;;;;;;;;;5028135;28;19917;-60
2023/03/16 04:53:48;;;;;;;;;;;;;;;;;;5028201;28;19982;-59
2023/03/16 04:56:17;;;;;;;;;;;;;;;;;;5027995;28;19916;-59
2023/03/16 04:58:43;;;;;;;;;;;;;;;;;;5028360;28;19956;-60
2023/03/16 05:01:08;;;;;;;;;;;;;;;;;;5008829;28;19960;-60
2023/03/16 05:03:34;;;;;;;;;;;;;;;;;;5008385;28;19982;-59
2023/03/16 05:06:00;;;;;;;;;;;;;;;;;;5008537;28;19913;-61
2023/03/16 05:08:26;;;;;;;;;;;;;;;;;;5008302;28;20012;-59
2023/03/16 05:10:52;;;;;;;;;;;;;;;;;;5008470;28;19922;-59
2023/03/16 05:13:18;;;;;;;;;;;;;;;;;;5008133;28;20380;-59
2023/03/16 05:15:44;;;;;;;;;;;;;;;;;;5007860;28;19935;-59
2023/03/16 05:18:10;;;;;;;;;;;;;;;;;;5010982;28;19913;-59
2023/03/16 05:20:36;;;;;;;;;;;;;;;;;;5011311;28;19909;-59
2023/03/16 05:23:02;;;;;;;;;;;;;;;;;;5011832;28;19916;-59
2023/03/16 05:25:28;;;;;;;;;;;;;;;;;;5011806;28;19953;-59
2023/03/16 05:27:54;;;;;;;;;;;;;;;;;;5010394;28;19913;-60
2023/03/16 05:30:20;;;;;;;;;;;;;;;;;;5011262;28;19915;-59
2023/03/16 05:32:46;;;;;;;;;;;;;;;;;;5012196;28;20020;-59
2023/03/16 05:35:12;;;;;;;;;;;;;;;;;;5012201;28;20284;-59
2023/03/16 05:37:38;;;;;;;;;;;;;;;;;;5011742;28;19920;-59
2023/03/16 05:40:11;;;;;;;;;;;;;;;;;;5011388;28;19909;-59
2023/03/16 05:42:37;;;;;;;;;;;;;;;;;;5011409;28;19913;-59
2023/03/16 05:45:02;;;;;;;;;;;;;;;;;;5011399;28;19921;-60
2023/03/16 05:47:28;;;;;;;;;;;;;;;;;;5011517;28;20192;-59
2023/03/16 05:49:54;;;;;;;;;;;;;;;;;;5011046;28;20009;-59
2023/03/16 05:52:20;;;;;;;;;;;;;;;;;;5011170;28;19922;-59
2023/03/16 05:54:46;;;;;;;;;;;;;;;;;;5010665;28;19959;-60
2023/03/16 05:57:12;;;;;;;;;;;;;;;;;;5011201;28;20024;-59
2023/03/16 05:59:38;;;;;;;;;;;;;;;;;;5011098;28;20364;-59
2023/03/16 06:02:04;;;;;;;;;;;;;;;;;;5030681;28;19910;-59
2023/03/16 06:04:30;;;;;;;;;;;;;;;;;;5031119;28;20457;-59
2023/03/16 06:06:56;;;;;;;;;;;;;;;;;;5030682;28;19994;-60
2023/03/16 06:09:22;;;;;;;;;;;;;;;;;;5030873;28;19956;-59
2023/03/16 06:11:47;;;;;;;;;;;;;;;;;;5030359;28;20325;-59
2023/03/16 06:14:13;;;;;;;;;;;;;;;;;;5030992;28;19916;-59
2023/03/16 06:16:39;;;;;;;;;;;;;;;;;;5030501;28;19953;-59
2023/03/16 06:19:05;;;;;;;;;;;;;;;;;;5030131;28;19913;-58
2023/03/16 06:21:31;;;;;;;;;;;;;;;;;;5030324;28;19923;-58
2023/03/16 06:23:57;;;;;;;;;;;;;;;;;;5030581;28;20311;-58
2023/03/16 06:26:23;;;;;;;;;;;;;;;;;;5030141;28;20003;-59
2023/03/16 06:28:49;;;;;;;;;;;;;;;;;;5029151;28;19909;-58
2023/03/16 06:31:15;;;;;;;;;;;;;;;;;;5030019;28;20002;-58
2023/03/16 06:33:40;;;;;;;;;;;;;;;;;;5030316;28;20599;-59
2023/03/16 06:36:07;;;;;;;;;;;;;;;;;;5030175;28;19913;-58
2023/03/16 06:38:33;;;;;;;;;;;;;;;;;;5030566;28;19913;-58
2023/03/16 06:40:59;;;;;;;;;;;;;;;;;;5029894;28;19920;-58
2023/03/16 06:43:25;;;;;;;;;;;;;;;;;;5029979;28;20479;-58
2023/03/16 06:45:51;;;;;;;;;;;;;;;;;;5030119;28;19913;-58
2023/03/16 06:48:17;;;;;;;;;;;;;;;;;;5028771;28;19920;-59
2023/03/16 06:50:43;;;;;;;;;;;;;;;;;;5029447;28;19913;-52
2023/03/16 06:53:08;;;;;;;;;;;;;;;;;;5029132;28;19987;-52
2023/03/16 06:55:34;;;;;;;;;;;;;;;;;;5028560;28;19948;-57
2023/03/16 06:58:00;;;;;;;;;;;;;;;;;;5029289;28;19909;-62
2023/03/16 07:00:26;;;;;;;;;;;;;;;;;;5020488;28;19997;-63
2023/03/16 07:02:52;;;;;;;;;;;;;;;;;;5009660;28;20313;-62
2023/03/16 07:05:18;;;;;;;;;;;;;;;;;;5009524;28;19914;-61
2023/03/16 07:07:44;;;;;;;;;;;;;;;;;;5009432;28;19920;-63
2023/03/16 07:10:10;;;;;;;;;;;;;;;;;;5009484;28;19925;-62
2023/03/16 07:12:36;;;;;;;;;;;;;;;;;;5009731;28;19917;-62
2023/03/16 07:15:02;;;;;;;;;;;;;;;;;;5009336;28;19914;-62
2023/03/16 07:17:28;;;;;;;;;;;;;;;;;;5009358;28;20001;-62
2023/03/16 07:19:53;;;;;;;;;;;;;;;;;;5009582;28;19914;-61
2023/03/16 07:22:20;;;;;;;;;;;;;;;;;;5009780;28;19910;-62
2023/03/16 07:24:50;;;;;;;;;;;;;;;;;;5009262;28;20000;-64
2023/03/16 07:27:16;;;;;;;;;;;;;;;;;;5009527;28;19925;-62
2023/03/16 07:29:42;;;;;;;;;;;;;;;;;;5009018;28;19921;-63
2023/03/16 07:32:08;;;;;;;;;;;;;;;;;;5008848;28;19913;-60
2023/03/16 07:34:34;;;;;;;;;;;;;;;;;;5028107;28;19999;-63
2023/03/16 07:37:00;;;;;;;;;;;;;;;;;;5028189;28;19913;-61
2023/03/16 07:39:27;;;;;;;;;;;;;;;;;;5028659;28;19913;-58
2023/03/16 07:41:53;;;;;;;;;;;;;;;;;;5028826;28;19909;-58
2023/03/16 07:44:19;;;;;;;;;;;;;;;;;;5028948;28;19920;-60
2023/03/16 07:46:45;;;;;;;;;;;;;;;;;;5028607;28;20456;-60
2023/03/16 07:49:11;;;;;;;;;;;;;;;;;;5028662;28;19913;-58
2023/03/16 07:51:37;;;;;;;;;;;;;;;;;;5028375;28;19976;-58
2023/03/16 07:54:03;;;;;;;;;;;;;;;;;;5028424;28;19913;-58
2023/03/16 07:56:29;;;;;;;;;;;;;;;;;;5028331;28;20040;-58
2023/03/16 07:58:54;;;;;;;;;;;;;;;;;;5028563;28;20007;-58
2023/03/16 08:01:21;;;;;;;;;;;;;;;;;;5012525;28;19921;-58
2023/03/16 08:03:47;;;;;;;;;;;;;;;;;;5009099;28;20396;-58
2023/03/16 08:06:13;;;;;;;;;;;;;;;;;;5009031;28;19913;-58
2023/03/16 08:08:39;;;;;;;;;;;;;;;;;;5009067;28;19913;-58
2023/03/16 08:11:04;;;;;;;;;;;;;;;;;;5020192;28;19944;-58
2023/03/16 08:13:30;;;;;;;;;;;;;;;;;;5028404;28;19920;-58
2023/03/16 08:16:00;;;;;;;;;;;;;;;;;;5028413;28;19919;-57
2023/03/16 08:18:26;;;;;;;;;;;;;;;;;;5026712;28;19967;-57
2023/03/16 08:20:52;;;;;;;;;;;;;;;;;;5028142;28;19917;-58
2023/03/16 08:23:18;;;;;;;;;;;;;;;;;;5028234;28;20757;-58
2023/03/16 08:25:45;;;;;;;;;;;;;;;;;;5028067;28;20423;-58
2023/03/16 08:28:11;;;;;;;;;;;;;;;;;;5028009;28;19909;-58
2023/03/16 08:30:37;;;;;;;;;;;;;;;;;;5028531;28;20011;-57
2023/03/16 08:33:03;;;;;;;;;;;;;;;;;;5028230;28;19975;-58
2023/03/16 08:35:29;;;;;;;;;;;;;;;;;;5028116;28;19917;-57
2023/03/16 08:37:55;;;;;;;;;;;;;;;;;;5028092;28;20067;-58
2023/03/16 08:40:21;;;;;;;;;;;;;;;;;;5028120;28;19913;-58
2023/03/16 08:42:49;;;;;;;;;;;;;;;;;;5028047;28;20332;-58
2023/03/16 08:45:16;;;;;;;;;;;;;;;;;;5028251;28;20004;-59
2023/03/16 08:47:42;;;;;;;;;;;;;;;;;;5028292;28;20067;-57
2023/03/16 08:50:08;;;;;;;;;;;;;;;;;;5028188;28;20008;-54
2023/03/16 08:52:35;;;;;;;;;;;;;;;;;;5029536;28;19921;-58
2023/03/16 08:55:03;;;;;;;;;;;;;;;;;;5032394;28;20048;-61
2023/03/16 08:57:29;;;;;;;;;;;;;;;;;;5031493;28;19909;-61
2023/03/16 08:59:55;;;;;;;;;;;;;;;;;;5031473;28;19924;-60
2023/03/16 09:02:21;;;;;;;;;;;;;;;;;;5031781;28;20393;-60
2023/03/16 09:04:47;;;;;;;;;;;;;;;;;;5031745;28;19909;-60
2023/03/16 09:07:13;;;;;;;;;;;;;;;;;;5031247;28;20401;-59
2023/03/16 09:09:39;;;;;;;;;;;;;;;;;;5031218;28;19913;-59
2023/03/16 09:12:05;;;;;;;;;;;;;;;;;;5031586;28;20301;-62
2023/03/16 09:14:31;;;;;;;;;;;;;;;;;;5030210;28;19913;-60
2023/03/16 09:16:57;;;;;;;;;;;;;;;;;;5044704;22;19913;-57
2023/03/16 09:19:23;;;;;;;;;;;;;;;;;;5031345;28;20412;-57
2023/03/16 09:21:50;;;;;;;;;;;;;;;;;;5046528;28;19935;-58
2023/03/16 09:24:16;;;;;;;;;;;;;;;;;;5046892;28;19909;-57
2023/03/16 09:26:42;;;;;;;;;;;;;;;;;;5031088;28;20413;-57
2023/03/16 09:29:08;;;;;;;;;;;;;;;;;;5031555;28;20415;-57
2023/03/16 09:31:35;;;;;;;;;;;;;;;;;;5031065;28;20362;-57
2023/03/16 09:34:00;;;;;;;;;;;;;;;;;;5031056;28;20504;-62
2023/03/16 09:36:27;;;;;;;;;;;;;;;;;;5031168;28;20494;-50
2023/03/16 09:38:53;;;;;;;;;;;;;;;;;;5031333;28;19932;-49
2023/03/16 09:41:19;;;;;;;;;;;;;;;;;;5030815;28;19945;-47
2023/03/16 09:43:45;;;;;;;;;;;;;;;;;;5030709;28;19971;-48
2023/03/16 09:46:11;;;;;;;;;;;;;;;;;;5030791;28;20444;-50
2023/03/16 09:48:38;;;;;;;;;;;;;;;;;;5031453;28;19913;-48
2023/03/16 09:51:04;;;;;;;;;;;;;;;;;;5030790;28;19923;-47
2023/03/16 09:53:30;;;;;;;;;;;;;;;;;;5030972;28;19913;-47
2023/03/16 09:55:56;;;;;;;;;;;;;;;;;;5030722;28;20356;-48
2023/03/16 09:58:22;;;;;;;;;;;;;;;;;;5031238;28;19917;-49
2023/03/16 10:00:48;;;;;;;;;;;;;;;;;;5030489;28;19917;-51
2023/03/16 10:03:14;;;;;;;;;;;;;;;;;;5029890;28;19924;-49
2023/03/16 10:05:40;;;;;;;;;;;;;;;;;;5028433;28;20343;-48
2023/03/16 10:13:17;;;;;;;;;;;;;;;;;;5684954;23;19925;-57
2023/03/16 10:15:44;;;;;;;;;;;;;;;;;;5027412;28;20273;-60
2023/03/16 10:18:10;;;;;;;;;;;;;;;;;;5013264;28;20269;-59
2023/03/16 10:20:36;;;;;;;;;;;;;;;;;;5016236;28;19916;-60
2023/03/16 10:23:02;;;;;;;;;;;;;;;;;;5030791;28;19913;-60
2023/03/16 10:25:28;;;;;;;;;;;;;;;;;;5030907;28;19943;-61
2023/03/16 10:27:56;;;;;;;;;;;;;;;;;;5030779;28;20300;-61
2023/03/16 10:30:22;;;;;;;;;;;;;;;;;;5030341;28;19913;-60
2023/03/16 10:32:48;;;;;;;;;;;;;;;;;;5031060;28;19917;-59
2023/03/16 10:35:14;;;;;;;;;;;;;;;;;;5030848;28;19913;-60
2023/03/16 10:37:40;;;;;;;;;;;;;;;;;;5031438;28;19919;-60
2023/03/16 10:40:08;;;;;;;;;;;;;;;;;;5030998;28;20352;-60
2023/03/16 10:42:33;;;;;;;;;;;;;;;;;;5030405;28;19947;-60
2023/03/16 10:45:00;;;;;;;;;;;;;;;;;;5030052;28;20316;-60
2023/03/16 10:47:25;;;;;;;;;;;;;;;;;;5030423;28;19917;-61
2023/03/16 10:49:52;;;;;;;;;;;;;;;;;;5030056;28;19917;-60
2023/03/16 10:52:18;;;;;;;;;;;;;;;;;;5029793;28;20018;-61
2023/03/16 10:54:44;;;;;;;;;;;;;;;;;;5030059;28;20031;-61
2023/03/16 10:57:10;;;;;;;;;;;;;;;;;;5029612;28;20021;-61
2023/03/16 10:59:37;;;;;;;;;;;;;;;;;;5029663;28;19913;-60
2023/03/16 11:02:04;;;;;;;;;;;;;;;;;;5029841;28;19963;-61
2023/03/16 11:04:30;;;;;;;;;;;;;;;;;;5029895;28;20442;-60
2023/03/16 11:06:56;;;;;;;;;;;;;;;;;;5030347;28;19917;-60
2023/03/16 11:09:21;;;;;;;;;;;;;;;;;;5029580;28;20003;-60
2023/03/16 11:11:48;;;;;;;;;;;;;;;;;;5029291;28;20312;-61
2023/03/16 11:14:14;;;;;;;;;;;;;;;;;;5028824;28;19920;-60
2023/03/16 11:16:40;;;;;;;;;;;;;;;;;;5029097;28;20006;-60
2023/03/16 11:19:06;;;;;;;;;;;;;;;;;;5029548;28;20401;-61
2023/03/16 11:21:32;;;;;;;;;;;;;;;;;;5029348;28;19913;-61
2023/03/16 11:23:58;;;;;;;;;;;;;;;;;;5029124;28;19939;-60
2023/03/16 11:26:24;;;;;;;;;;;;;;;;;;5029116;28;19913;-60
2023/03/16 11:28:50;;;;;;;;;;;;;;;;;;5029133;28;19951;-61
2023/03/16 11:31:16;;;;;;;;;;;;;;;;;;5029005;28;19917;-61
2023/03/16 11:33:42;;;;;;;;;;;;;;;;;;5028120;28;20653;-60
2023/03/16 11:36:08;;;;;;;;;;;;;;;;;;5029167;28;19909;-61
2023/03/16 11:38:35;;;;;;;;;;;;;;;;;;5029106;28;19945;-61
2023/03/16 11:41:00;;;;;;;;;;;;;;;;;;5028705;28;19917;-61
2023/03/16 11:43:26;;;;;;;;;;;;;;;;;;5028938;28;19975;-60
2023/03/16 11:45:52;;;;;;;;;;;;;;;;;;5029361;28;19920;-60
2023/03/16 11:48:18;;;;;;;;;;;;;;;;;;5027437;28;19920;-60
2023/03/16 11:50:44;;;;;;;;;;;;;;;;;;5028968;28;19960;-60
2023/03/16 11:58:22;;;;;;;;;;;;;;;;;;5571336;23;19933;-59
2023/03/16 12:00:48;;;;;;;;;;;;;;;;;;5019321;28;19917;-58
2023/03/16 12:03:14;;;;;;;;;;;;;;;;;;5028639;28;19913;-58
2023/03/16 12:05:41;;;;;;;;;;;;;;;;;;5028946;28;19941;-58
2023/03/16 12:08:07;;;;;;;;;;;;;;;;;;5021808;28;19913;-67
2023/03/16 12:10:32;;;;;;;;;;;;;;;;;;5009841;28;19910;-66
2023/03/16 12:12:59;;;;;;;;;;;;;;;;;;5008061;28;20390;-66
2023/03/16 12:15:26;;;;;;;;;;;;;;;;;;5018305;28;19933;-61
2023/03/16 12:17:52;;;;;;;;;;;;;;;;;;5022755;28;20409;-60
2023/03/16 12:20:18;;;;;;;;;;;;;;;;;;5019866;28;19959;-60
2023/03/16 12:22:43;;;;;;;;;;;;;;;;;;5028629;28;19920;-61
2023/03/16 12:25:10;;;;;;;;;;;;;;;;;;5028382;28;19913;-60
2023/03/16 12:27:36;;;;;;;;;;;;;;;;;;5030015;28;19989;-60
2023/03/16 12:30:02;;;;;;;;;;;;;;;;;;5031983;28;19916;-60
2023/03/16 12:32:28;;;;;;;;;;;;;;;;;;5031198;28;20024;-61
2023/03/16 12:34:55;;;;;;;;;;;;;;;;;;5031924;28;19913;-62
2023/03/16 12:37:20;;;;;;;;;;;;;;;;;;5031222;28;20385;-61
2023/03/16 12:39:46;;;;;;;;;;;;;;;;;;5031282;28;19958;-61
2023/03/16 12:42:12;;;;;;;;;;;;;;;;;;5031431;28;19954;-61
2023/03/16 12:44:39;;;;;;;;;;;;;;;;;;5032062;28;20000;-61
2023/03/16 12:47:05;;;;;;;;;;;;;;;;;;5032956;28;19956;-61
2023/03/16 12:49:31;;;;;;;;;;;;;;;;;;5032522;28;19935;-61
2023/03/16 12:51:58;;;;;;;;;;;;;;;;;;5032486;28;20381;-62
2023/03/16 12:54:24;;;;;;;;;;;;;;;;;;5032175;28;19929;-62
2023/03/16 12:56:50;;;;;;;;;;;;;;;;;;5031762;28;19909;-60
2023/03/16 12:59:17;;;;;;;;;;;;;;;;;;5031729;28;19972;-60
2023/03/16 13:01:43;;;;;;;;;;;;;;;;;;5031912;28;20000;-61
2023/03/16 13:04:09;;;;;;;;;;;;;;;;;;5031835;28;20337;-61
2023/03/16 13:06:35;;;;;;;;;;;;;;;;;;5031800;28;20320;-61
2023/03/16 13:09:02;;;;;;;;;;;;;;;;;;5030842;28;19909;-61
2023/03/16 13:11:28;;;;;;;;;;;;;;;;;;5032114;28;20389;-62
2023/03/16 13:13:54;;;;;;;;;;;;;;;;;;5030452;28;19939;-61
2023/03/16 13:16:20;;;;;;;;;;;;;;;;;;5032321;28;20537;-60
2023/03/16 13:18:46;;;;;;;;;;;;;;;;;;5031582;28;19942;-61
2023/03/16 13:23:48;;;;;;;;;;;;;;;;;;6015581;22;19934;-59
2023/03/16 13:26:18;;;;;;;;;;;;;;;;;;5035831;28;19925;-59
2023/03/16 13:28:44;;;;;;;;;;;;;;;;;;5023596;28;20265;-59
2023/03/16 13:31:10;;;;;;;;;;;;;;;;;;5031823;28;19963;-59
2023/03/16 13:33:37;;;;;;;;;;;;;;;;;;5031106;28;19929;-59
2023/03/16 13:36:03;;;;;;;;;;;;;;;;;;5036695;28;19917;-59
2023/03/16 13:38:29;;;;;;;;;;;;;;;;;;5030967;28;20455;-59
2023/03/16 13:40:55;;;;;;;;;;;;;;;;;;5030565;28;19920;-59
2023/03/16 13:43:21;;;;;;;;;;;;;;;;;;5030746;28;19959;-58
2023/03/16 13:45:47;;;;;;;;;;;;;;;;;;5031225;28;19916;-59
2023/03/16 13:48:13;;;;;;;;;;;;;;;;;;5031388;28;19940;-59
2023/03/16 13:50:41;;;;;;;;;;;;;;;;;;5031536;28;19960;-59
2023/03/16 13:53:07;;;;;;;;;;;;;;;;;;5030878;28;19920;-59
2023/03/16 13:55:33;;;;;;;;;;;;;;;;;;5011443;28;19955;-59
2023/03/16 13:58:00;;;;;;;;;;;;;;;;;;5016380;28;20012;-60
2023/03/16 14:00:26;;;;;;;;;;;;;;;;;;5023364;28;20355;-60
2023/03/16 14:02:52;;;;;;;;;;;;;;;;;;5028887;28;20406;-60
2023/03/16 14:05:18;;;;;;;;;;;;;;;;;;5033440;28;20427;-59
2023/03/16 14:07:45;;;;;;;;;;;;;;;;;;5030988;28;19913;-59
2023/03/16 14:10:11;;;;;;;;;;;;;;;;;;5030859;28;19921;-59
2023/03/16 14:12:39;;;;;;;;;;;;;;;;;;5031072;28;19917;-59
2023/03/16 14:15:05;;;;;;;;;;;;;;;;;;5031129;28;20003;-59
2023/03/16 14:17:31;;;;;;;;;;;;;;;;;;5030859;28;19913;-59
2023/03/16 14:19:58;;;;;;;;;;;;;;;;;;5031198;28;19968;-59
2023/03/16 14:22:24;;;;;;;;;;;;;;;;;;5030467;28;19913;-60
2023/03/16 14:24:50;;;;;;;;;;;;;;;;;;5030523;28;19920;-59
2023/03/16 14:27:16;;;;;;;;;;;;;;;;;;5030584;28;20486;-60
2023/03/16 14:29:42;;;;;;;;;;;;;;;;;;5031129;28;19917;-60
2023/03/16 14:32:08;;;;;;;;;;;;;;;;;;5030502;28;20369;-60
2023/03/16 14:34:34;;;;;;;;;;;;;;;;;;5030556;28;19909;-60
2023/03/16 14:37:01;;;;;;;;;;;;;;;;;;5030450;28;19913;-60
2023/03/16 14:39:28;;;;;;;;;;;;;;;;;;5030261;28;19963;-61
2023/03/16 14:41:54;;;;;;;;;;;;;;;;;;5030182;28;19989;-59
2023/03/16 14:44:20;;;;;;;;;;;;;;;;;;5030367;28;20394;-58
2023/03/16 14:46:46;;;;;;;;;;;;;;;;;;5030487;28;19909;-59
2023/03/16 14:49:12;;;;;;;;;;;;;;;;;;5030048;28;19940;-59
2023/03/16 14:51:37;;;;;;;;;;;;;;;;;;5029340;28;20413;-58
2023/03/16 14:54:03;;;;;;;;;;;;;;;;;;5030091;28;19920;-58
2023/03/16 14:56:29;;;;;;;;;;;;;;;;;;5029776;28;20015;-59
2023/03/16 14:58:55;;;;;;;;;;;;;;;;;;5030016;28;19913;-59
2023/03/16 15:01:21;;;;;;;;;;;;;;;;;;5029603;28;20374;-59
2023/03/16 15:03:47;;;;;;;;;;;;;;;;;;5029722;28;19917;-59
2023/03/16 15:06:14;;;;;;;;;;;;;;;;;;5030198;28;19909;-59
2023/03/16 15:08:43;;;;;;;;;;;;;;;;;;5029936;28;19913;-59
2023/03/16 15:11:09;;;;;;;;;;;;;;;;;;5029433;28;19928;-59
2023/03/16 15:16:04;;;;;;;;;;;;;;;;;;5029755;28;19913;-59
2023/03/16 15:18:30;;;;;;;;;;;;;;;;;;5029466;28;19920;-59
2023/03/16 15:20:56;;;;;;;;;;;;;;;;;;5029365;28;19905;-59
2023/03/16 15:23:22;;;;;;;;;;;;;;;;;;5029725;28;19921;-59
2023/03/16 15:25:48;;;;;;;;;;;;;;;;;;5029242;28;19913;-59
2023/03/16 15:28:17;;;;;;;;;;;;;;;;;;5029477;28;19925;-59
2023/03/16 15:30:43;;;;;;;;;;;;;;;;;;5028231;28;19921;-59
2023/03/16 15:33:09;;;;;;;;;;;;;;;;;;5029591;28;19925;-59
2023/03/16 15:35:35;;;;;;;;;;;;;;;;;;5029339;28;20007;-59
2023/03/16 15:38:01;;;;;;;;;;;;;;;;;;5029397;28;19913;-59
2023/03/16 15:40:27;;;;;;;;;;;;;;;;;;5029583;28;20016;-59
2023/03/16 15:42:53;;;;;;;;;;;;;;;;;;5028897;28;19909;-58
2023/03/16 15:45:19;;;;;;;;;;;;;;;;;;5029387;28;19920;-59
2023/03/16 15:47:45;;;;;;;;;;;;;;;;;;5029597;28;19933;-59
2023/03/16 15:50:11;;;;;;;;;;;;;;;;;;5029123;28;19948;-59
2023/03/16 15:52:37;;;;;;;;;;;;;;;;;;5029216;28;19987;-59
2023/03/16 15:55:06;;;;;;;;;;;;;;;;;;5029510;28;20002;-59
2023/03/16 15:57:32;;;;;;;;;;;;;;;;;;5029112;28;19955;-59
2023/03/16 15:59:58;;;;;;;;;;;;;;;;;;5029138;28;19998;-59
2023/03/16 16:02:24;;;;;;;;;;;;;;;;;;5027982;28;19936;-59
2023/03/16 16:04:50;;;;;;;;;;;;;;;;;;5028901;28;19913;-59
2023/03/16 16:07:16;;;;;;;;;;;;;;;;;;5028623;28;19920;-59
2023/03/16 16:09:42;;;;;;;;;;;;;;;;;;5029248;28;20538;-59
2023/03/16 16:12:08;;;;;;;;;;;;;;;;;;5028969;28;19921;-59
2023/03/16 16:14:34;;;;;;;;;;;;;;;;;;5029042;28;19913;-60
2023/03/16 16:16:59;;;;;;;;;;;;;;;;;;5028856;28;19917;-59
2023/03/16 16:19:25;;;;;;;;;;;;;;;;;;5028692;28;19913;-59
2023/03/16 16:21:52;;;;;;;;;;;;;;;;;;5028416;28;19928;-59
2023/03/16 16:24:18;;;;;;;;;;;;;;;;;;5028505;28;19961;-59
2023/03/16 16:26:47;;;;;;;;;;;;;;;;;;5028432;28;19956;-59
2023/03/16 16:29:13;;;;;;;;;;;;;;;;;;5028700;28;19920;-59
2023/03/16 16:31:39;;;;;;;;;;;;;;;;;;5028685;28;20296;-59
2023/03/16 16:34:05;;;;;;;;;;;;;;;;;;5028683;28;19955;-58
2023/03/16 16:36:31;;;;;;;;;;;;;;;;;;5028538;28;19913;-60
2023/03/16 16:38:59;;;;;;;;;;;;;;;;;;5028562;28;19913;-59
2023/03/16 16:41:24;;;;;;;;;;;;;;;;;;5028326;28;20008;-60
2023/03/16 16:43:50;;;;;;;;;;;;;;;;;;5028527;28;20000;-59
2023/03/16 16:46:16;;;;;;;;;;;;;;;;;;5028258;28;19913;-60
2023/03/16 16:48:42;;;;;;;;;;;;;;;;;;5028577;28;19913;-59
2023/03/16 16:51:08;;;;;;;;;;;;;;;;;;5016161;28;19987;-60
2023/03/16 16:53:34;;;;;;;;;;;;;;;;;;5013921;28;19918;-59